Norman Wells Airport

Airport
ICAO code: 
CYVQ
Summary
ICAO Region: 
NAM
Territory: 
Location: 
Norman Wells, Northwest Territories,
Coordinates: 
Aerial View: 
65° 16' 55.147" N, 126° 48' 5.847" W
Airport BS: 
Non Avian Wildlife Hazards to Aircraft
Airport CFIT: 
Altimeter Temperature Error Correction
Airport GND: 
Aircraft Ground De/Anti Icing
Airport RE: 
Landing on Contaminated Runways
Metar
Observation
CYVQ 272100Z VRB02KT 30SM FEW120 M27/M31 A3007 RMK AC1 AC TR SLP195
Station
Norman Wells, N. W. T.
Date/Time
2021-11-27 21:00:00
Wind speed
02 kts
Lowest cloud amount
few clouds
Temperature
-27°C
Dew point
-31°C
Humidity
68%
Weather condition
n/a

Description

Norman Wells Airport is a regional airport located in Norman Wells, Northwest Territories, Canada.

Climatology

Subarctic climate (Köppen climate classification Dfc) - long, usually very cold winters, and short, cool to mild summers.

Runways

Designator Length Width Surface Rops
9/27 1828 46 ASP No/No
Airport map: 
Aerial View: 

SKYbrary Partners:

Safety knowledge contributed by: